To NAV CANADA Home Page Login to a new session Search on AWWS site Disclaimer Vers la page française équivalente Tips FAQ What's new on the site To the Forecasts and Observations / NOTAM section To "File a Flight Plan" website Publications and other links Update of the User's profile FIC Telephone Numbers My Weather Data Folder Route Weather Data Regional Weather Data Local Weather Data To the Forecasts and Observations / NOTAM section
Request Generated 11/13/2018 at 18:04:09 UTC . Weather information available at that time is displayed.

METAR/TAF

PEACE RIVER/AB    

METAR CYPE 131800Z 08003KT 060V140 15SM FEW120 BKN160 OVC210 M02/M05 A2986 RMK AC1AC5CI2 SLP145=
METAR CYPE 131700Z 18002KT 15SM BKN160 OVC210 M03/M06 A2988 RMK AC7CI1 SLP153=
METAR CYPE 131600Z 20006KT 15SM BKN170 OVC210 M04/M06 A2990 RMK AC7CI1 SLP158=

TAF CYPE 131238Z 1313/1401 22006KT P6SM OVC200
FM131500 24010KT P6SM SCT200
BECMG 1319/1321 24012G22KT SCT120 BKN200
RMK NXT FCST BY 131900Z=
Your time UTC time
Weather data provided by Environment Canada and NAV CANADA